createdAt,value
2022-10-08T00:00:50.756Z,98510.63
2022-10-08T00:03:18.723Z,98508.69
2022-10-08T00:05:56.308Z,98511.00
2022-10-08T00:08:23.805Z,98506.72
2022-10-08T00:10:55.868Z,98506.22
2022-10-08T00:13:24.905Z,98511.03
2022-10-08T00:15:51.973Z,98506.88
2022-10-08T00:18:20.342Z,98514.88
2022-10-08T00:20:47.935Z,98514.34
2022-10-08T00:23:17.016Z,98511.09
2022-10-08T00:25:45.073Z,98509.66
2022-10-08T00:28:13.891Z,98508.03
2022-10-08T00:30:41.981Z,98511.53
2022-10-08T00:33:10.255Z,98508.78
2022-10-08T00:35:40.793Z,98513.13
2022-10-08T00:38:07.732Z,98513.94
2022-10-08T00:40:44.909Z,98511.16
2022-10-08T00:43:16.370Z,98510.16
2022-10-08T00:45:46.270Z,98516.13
2022-10-08T00:48:21.068Z,98508.88
2022-10-08T00:50:48.066Z,98512.34
2022-10-08T00:53:15.015Z,98499.69
2022-10-08T00:55:43.798Z,98488.66
2022-10-08T00:58:23.115Z,98499.53
2022-10-08T01:00:50.384Z,98491.94
2022-10-08T01:03:17.033Z,98493.28
2022-10-08T01:05:58.876Z,98495.69
2022-10-08T01:08:46.751Z,98484.25
2022-10-08T01:11:30.078Z,98477.38
2022-10-08T01:14:01.675Z,98482.00
2022-10-08T01:16:39.772Z,98482.75
2022-10-08T01:19:40.587Z,98492.03
2022-10-08T01:22:31.635Z,98476.03
2022-10-08T01:25:34.295Z,98486.28
2022-10-08T01:28:03.693Z,98487.78
2022-10-08T01:30:34.546Z,98491.56
2022-10-08T01:33:13.241Z,98495.19
2022-10-08T01:35:46.534Z,98489.97
2022-10-08T01:38:19.306Z,98498.06
2022-10-08T01:40:48.151Z,98494.72
2022-10-08T01:43:18.844Z,98496.00
2022-10-08T01:45:57.150Z,98496.91
2022-10-08T01:48:29.126Z,98497.94
2022-10-08T01:51:03.374Z,98495.38
2022-10-08T01:53:34.622Z,98492.66
2022-10-08T01:56:04.429Z,98496.66
2022-10-08T01:59:19.290Z,98504.31
2022-10-08T02:02:10.910Z,98494.50
2022-10-08T02:04:37.929Z,98498.91
2022-10-08T02:07:18.409Z,98506.72
2022-10-08T02:09:51.485Z,98496.84
2022-10-08T02:12:20.026Z,98506.03
2022-10-08T02:14:58.482Z,98510.63
2022-10-08T02:17:25.089Z,98511.31
2022-10-08T02:19:57.094Z,98511.50
2022-10-08T02:22:30.704Z,98505.75
2022-10-08T02:25:05.495Z,98512.75
2022-10-08T02:27:52.491Z,98517.16
2022-10-08T02:30:19.692Z,98506.66
2022-10-08T02:32:51.753Z,98505.88
2022-10-08T02:35:27.481Z,98510.34
2022-10-08T02:38:05.398Z,98507.75
2022-10-08T02:40:34.612Z,98510.34
2022-10-08T02:43:08.499Z,98504.19
2022-10-08T02:45:51.204Z,98508.00
2022-10-08T02:48:26.458Z,98503.47
2022-10-08T02:50:56.038Z,98512.34
2022-10-08T02:53:24.845Z,98512.38
2022-10-08T02:56:16.651Z,98514.25
2022-10-08T02:58:44.265Z,98513.47
2022-10-08T03:01:26.856Z,98515.28
2022-10-08T03:04:17.743Z,98510.09
2022-10-08T03:06:45.842Z,98513.72
2022-10-08T03:09:15.135Z,98518.00
2022-10-08T03:11:42.516Z,98515.28
2022-10-08T03:14:12.464Z,98524.41
2022-10-08T03:16:44.207Z,98517.50
2022-10-08T03:19:13.993Z,98529.91
2022-10-08T03:21:43.142Z,98528.25
2022-10-08T03:24:11.516Z,98531.69
2022-10-08T03:26:39.229Z,98529.28
2022-10-08T03:29:06.084Z,98534.06
2022-10-08T03:31:33.056Z,98536.19
2022-10-08T03:33:59.707Z,98543.31
2022-10-08T03:36:27.086Z,98533.81
2022-10-08T03:38:53.709Z,98533.97
2022-10-08T03:41:20.808Z,98535.84
2022-10-08T03:43:47.549Z,98533.22
2022-10-08T03:46:15.485Z,98523.53
2022-10-08T03:48:42.969Z,98529.72
2022-10-08T03:51:14.469Z,98529.78
2022-10-08T03:53:42.901Z,98533.38
2022-10-08T03:56:12.775Z,98534.94
2022-10-08T03:58:39.747Z,98528.97
2022-10-08T04:01:17.280Z,98533.44
2022-10-08T04:03:47.727Z,98540.69
2022-10-08T04:06:14.824Z,98544.41
2022-10-08T04:08:41.706Z,98539.22
2022-10-08T04:11:11.275Z,98540.44
2022-10-08T04:13:38.529Z,98537.00
2022-10-08T04:16:08.206Z,98543.34
2022-10-08T04:18:35.460Z,98548.56
2022-10-08T04:21:06.199Z,98553.56
2022-10-08T04:23:35.501Z,98547.59
2022-10-08T04:26:02.861Z,98552.97
2022-10-08T04:28:33.860Z,98549.31
2022-10-08T04:31:08.009Z,98550.03
2022-10-08T04:33:35.669Z,98549.22
2022-10-08T04:36:07.507Z,98557.28
2022-10-08T04:38:34.061Z,98555.38
2022-10-08T04:41:05.003Z,98562.38
2022-10-08T04:43:31.614Z,98560.66
2022-10-08T04:45:58.375Z,98564.19
2022-10-08T04:48:24.968Z,98557.94
2022-10-08T04:51:05.783Z,98559.66
2022-10-08T04:53:35.121Z,98556.84
2022-10-08T04:56:11.035Z,98561.69
2022-10-08T04:58:37.702Z,98568.03
2022-10-08T05:01:09.294Z,98566.56
2022-10-08T05:03:40.610Z,98563.78
2022-10-08T05:06:07.967Z,98576.09
2022-10-08T05:08:34.890Z,98581.56
2022-10-08T05:11:01.581Z,98584.63
2022-10-08T05:13:28.493Z,98575.06
2022-10-08T05:15:55.269Z,98586.56
2022-10-08T05:18:22.848Z,98585.97
2022-10-08T05:20:49.548Z,98585.00
2022-10-08T05:23:16.055Z,98580.66
2022-10-08T05:25:42.944Z,98592.28
2022-10-08T05:28:09.652Z,98594.41
2022-10-08T05:30:36.446Z,98588.50
2022-10-08T05:33:03.112Z,98591.19
2022-10-08T05:35:29.863Z,98595.88
2022-10-08T05:37:56.511Z,98591.63
2022-10-08T05:40:24.338Z,98597.75
2022-10-08T05:42:51.116Z,98594.28
2022-10-08T05:45:17.809Z,98594.22
2022-10-08T05:47:44.540Z,98589.66
2022-10-08T05:50:11.280Z,98597.47
2022-10-08T05:52:37.842Z,98601.47
2022-10-08T05:55:04.762Z,98603.94
2022-10-08T05:57:31.443Z,98604.88
2022-10-08T05:59:58.263Z,98608.28
2022-10-08T06:02:24.938Z,98597.66
2022-10-08T06:04:52.026Z,98608.00
2022-10-08T06:07:18.697Z,98604.19
2022-10-08T06:09:45.442Z,98601.50
2022-10-08T06:12:14.026Z,98615.44
2022-10-08T06:14:41.143Z,98613.41
2022-10-08T06:17:07.854Z,98609.00
2022-10-08T06:19:37.713Z,98615.16
2022-10-08T06:22:05.103Z,98615.75
2022-10-08T06:24:31.943Z,98617.22
2022-10-08T06:26:58.734Z,98625.25
2022-10-08T06:29:25.307Z,98632.22
2022-10-08T06:31:52.447Z,98620.47
2022-10-08T06:34:19.169Z,98623.91
2022-10-08T06:36:45.848Z,98628.91
2022-10-08T06:39:15.449Z,98621.06
2022-10-08T06:41:42.725Z,98631.59
2022-10-08T06:44:14.442Z,98624.22
2022-10-08T06:46:41.962Z,98635.63
2022-10-08T06:49:10.936Z,98639.13
2022-10-08T06:51:37.918Z,98639.66
2022-10-08T06:54:07.933Z,98635.19
2022-10-08T06:56:36.487Z,98642.88
2022-10-08T06:59:04.101Z,98650.50
2022-10-08T07:01:33.775Z,98655.84
2022-10-08T07:04:01.807Z,98657.97
2022-10-08T07:06:29.034Z,98657.03
2022-10-08T07:08:58.186Z,98656.81
2022-10-08T07:11:25.789Z,98662.03
2022-10-08T07:13:53.845Z,98650.56
2022-10-08T07:16:22.529Z,98653.09
2022-10-08T07:18:51.269Z,98649.53
2022-10-08T07:21:19.558Z,98642.31
2022-10-08T07:23:46.273Z,98653.06
2022-10-08T07:26:17.173Z,98659.44
2022-10-08T07:28:51.549Z,98645.50
2022-10-08T07:31:20.940Z,98640.22
2022-10-08T07:33:48.027Z,98638.47
2022-10-08T07:36:20.224Z,98644.69
2022-10-08T07:38:48.203Z,98644.81
2022-10-08T07:41:15.165Z,98651.88
2022-10-08T07:43:41.854Z,98652.84
2022-10-08T07:46:10.840Z,98660.13
2022-10-08T07:48:38.644Z,98650.69
2022-10-08T07:51:09.176Z,98651.31
2022-10-08T07:53:36.739Z,98652.38
2022-10-08T07:56:04.830Z,98651.84
2022-10-08T07:58:31.674Z,98668.97
2022-10-08T08:01:00.272Z,98657.97
2022-10-08T08:03:26.931Z,98661.50
2022-10-08T08:05:54.546Z,98663.84
2022-10-08T08:08:24.942Z,98660.81
2022-10-08T08:10:59.329Z,98670.09
2022-10-08T08:13:26.927Z,98671.13
2022-10-08T08:16:01.000Z,98675.16
2022-10-08T08:18:32.534Z,98684.75
2022-10-08T08:21:05.820Z,98679.34
2022-10-08T08:23:34.545Z,98680.16
2022-10-08T08:26:07.317Z,98679.38
2022-10-08T08:28:34.400Z,98681.47
2022-10-08T08:31:08.404Z,98682.56
2022-10-08T08:33:35.269Z,98687.47
2022-10-08T08:36:01.966Z,98682.72
2022-10-08T08:38:28.679Z,98688.28
2022-10-08T08:40:57.634Z,98687.09
2022-10-08T08:43:25.391Z,98674.97
2022-10-08T08:45:52.184Z,98681.22
2022-10-08T08:48:26.531Z,98683.34
2022-10-08T08:50:57.062Z,98684.84
2022-10-08T08:53:23.877Z,98690.00
2022-10-08T08:55:56.939Z,98690.50
2022-10-08T08:58:48.527Z,98678.72
2022-10-08T09:01:37.384Z,98681.16
2022-10-08T09:04:11.563Z,98679.75
2022-10-08T09:06:40.087Z,98681.41
2022-10-08T09:09:22.565Z,98682.66
2022-10-08T09:11:49.503Z,98684.59
2022-10-08T09:14:36.290Z,98689.16
2022-10-08T09:17:17.828Z,98685.63
2022-10-08T09:19:45.060Z,98687.94
2022-10-08T09:22:35.682Z,98689.81
2022-10-08T09:25:07.669Z,98690.84
2022-10-08T09:27:56.845Z,98691.03
2022-10-08T09:30:27.663Z,98690.34
2022-10-08T09:33:00.720Z,98701.25
2022-10-08T09:35:27.540Z,98705.03
2022-10-08T09:37:56.569Z,98710.56
2022-10-08T09:40:26.322Z,98712.81
2022-10-08T09:43:19.717Z,98722.19
2022-10-08T09:45:49.068Z,98716.00
2022-10-08T09:48:17.914Z,98720.19
2022-10-08T09:50:55.271Z,98717.47
2022-10-08T09:53:24.005Z,98715.00
2022-10-08T09:55:55.421Z,98714.72
2022-10-08T09:58:22.517Z,98724.50
2022-10-08T10:01:02.746Z,98712.16
2022-10-08T10:03:31.013Z,98723.63
2022-10-08T10:05:59.338Z,98724.06
2022-10-08T10:08:50.665Z,98729.22
2022-10-08T10:11:27.818Z,98738.41
2022-10-08T10:13:56.315Z,98737.63
2022-10-08T10:16:34.162Z,98740.59
2022-10-08T10:19:05.337Z,98735.75
2022-10-08T10:22:09.806Z,98741.28
2022-10-08T10:24:46.234Z,98737.22
2022-10-08T10:27:19.210Z,98737.81
2022-10-08T10:29:56.715Z,98744.50
2022-10-08T10:32:33.932Z,98741.81
2022-10-08T10:35:11.032Z,98747.03
2022-10-08T10:37:45.299Z,98750.78
2022-10-08T10:40:27.913Z,98743.03
2022-10-08T10:43:15.338Z,98750.59
2022-10-08T10:45:48.302Z,98761.16
2022-10-08T10:48:15.259Z,98757.41
2022-10-08T10:51:09.131Z,98767.94
2022-10-08T10:53:53.492Z,98766.31
2022-10-08T10:56:22.634Z,98778.97
2022-10-08T10:59:26.167Z,98782.72
2022-10-08T11:02:10.481Z,98782.47
2022-10-08T11:05:05.565Z,98780.38
2022-10-08T11:07:45.903Z,98785.50
2022-10-08T11:10:32.506Z,98785.44
2022-10-08T11:13:18.116Z,98782.84
2022-10-08T11:15:52.873Z,98795.69
2022-10-08T11:18:41.041Z,98792.50
2022-10-08T11:21:23.842Z,98798.84
2022-10-08T11:24:00.483Z,98802.53
2022-10-08T11:26:45.916Z,98808.09
2022-10-08T11:29:34.118Z,98793.69
2022-10-08T11:32:02.207Z,98808.16
2022-10-08T11:34:31.482Z,98801.78
2022-10-08T11:37:27.644Z,98810.84
2022-10-08T11:40:18.811Z,98808.63
2022-10-08T11:42:57.107Z,98805.84
2022-10-08T11:45:23.763Z,98814.16
2022-10-08T11:47:55.676Z,98811.44
2022-10-08T11:50:27.259Z,98811.59
2022-10-08T11:52:58.342Z,98812.56
2022-10-08T11:55:32.738Z,98810.72
2022-10-08T11:58:09.767Z,98815.69
2022-10-08T12:00:45.660Z,98817.09
2022-10-08T12:03:27.416Z,98813.19
2022-10-08T12:06:14.818Z,98815.41
2022-10-08T12:08:55.783Z,98811.59
2022-10-08T12:11:37.738Z,98816.22
2022-10-08T12:14:13.620Z,98838.09
2022-10-08T12:16:49.135Z,98832.63
2022-10-08T12:19:34.471Z,98834.41
2022-10-08T12:22:04.013Z,98834.38
2022-10-08T12:24:39.787Z,98826.72
2022-10-08T12:27:18.719Z,98838.66
2022-10-08T12:29:56.870Z,98837.44
2022-10-08T12:32:41.886Z,98838.91
2022-10-08T12:35:31.738Z,98852.38
2022-10-08T12:38:16.496Z,98840.94
2022-10-08T12:40:48.398Z,98837.13
2022-10-08T12:43:40.635Z,98837.25
2022-10-08T12:46:18.281Z,98832.44
2022-10-08T12:48:51.571Z,98835.53
2022-10-08T12:51:40.489Z,98836.59
2022-10-08T12:54:18.842Z,98842.56
2022-10-08T12:56:45.978Z,98830.97
2022-10-08T12:59:12.979Z,98820.91
2022-10-08T13:01:42.725Z,98826.34
2022-10-08T13:04:09.434Z,98827.06
2022-10-08T13:06:36.194Z,98829.25
2022-10-08T13:09:14.035Z,98823.84
2022-10-08T13:11:42.396Z,98834.72
2022-10-08T13:14:40.658Z,98831.47
2022-10-08T13:17:26.659Z,98832.03
2022-10-08T13:20:14.259Z,98833.88
2022-10-08T13:22:41.068Z,98831.28
2022-10-08T13:25:45.821Z,98830.69
2022-10-08T13:28:15.599Z,98823.66
2022-10-08T13:30:47.117Z,98829.06
2022-10-08T13:33:22.203Z,98815.44
2022-10-08T13:35:58.061Z,98821.03
2022-10-08T13:38:31.160Z,98825.53
2022-10-08T13:41:03.117Z,98822.06
2022-10-08T13:43:30.676Z,98831.16
2022-10-08T13:45:57.502Z,98820.78
2022-10-08T13:48:24.561Z,98811.88
2022-10-08T13:50:52.347Z,98820.63
2022-10-08T13:53:24.829Z,98826.03
2022-10-08T13:55:51.585Z,98823.16
2022-10-08T13:58:20.302Z,98829.69
2022-10-08T14:00:48.069Z,98824.72
2022-10-08T14:03:15.448Z,98819.41
2022-10-08T14:05:45.051Z,98825.47
2022-10-08T14:08:23.648Z,98825.94
2022-10-08T14:10:53.192Z,98831.31
2022-10-08T14:13:19.777Z,98829.38
2022-10-08T14:15:46.462Z,98834.53
2022-10-08T14:18:13.684Z,98834.56
2022-10-08T14:20:40.514Z,98836.19
2022-10-08T14:23:07.221Z,98827.00
2022-10-08T14:25:34.034Z,98836.41
2022-10-08T14:28:01.243Z,98840.97
2022-10-08T14:30:28.289Z,98847.63
2022-10-08T14:32:55.402Z,98850.34
2022-10-08T14:35:22.475Z,98853.38
2022-10-08T14:37:49.745Z,98847.03
2022-10-08T14:40:20.272Z,98846.13
2022-10-08T14:42:47.737Z,98852.13
2022-10-08T14:45:14.847Z,98852.00
2022-10-08T14:47:42.061Z,98851.69
2022-10-08T14:50:09.546Z,98850.03
2022-10-08T14:52:43.251Z,98846.09
2022-10-08T14:55:12.039Z,98856.06
2022-10-08T14:57:38.745Z,98861.69
2022-10-08T15:00:06.239Z,98860.59
2022-10-08T15:02:34.557Z,98882.34
2022-10-08T15:05:01.784Z,98879.94
2022-10-08T15:07:28.912Z,98876.03
2022-10-08T15:09:55.648Z,98875.34
2022-10-08T15:12:22.390Z,98872.66
2022-10-08T15:14:49.044Z,98866.44
2022-10-08T15:17:15.765Z,98873.31
2022-10-08T15:19:42.500Z,98877.13
2022-10-08T15:22:09.172Z,98880.91
2022-10-08T15:24:36.036Z,98882.78
2022-10-08T15:27:02.696Z,98880.16
2022-10-08T15:29:29.430Z,98881.81
2022-10-08T15:31:56.074Z,98884.88
2022-10-08T15:34:22.859Z,98884.63
2022-10-08T15:36:49.511Z,98888.94
2022-10-08T15:39:19.263Z,98882.72
2022-10-08T15:41:51.679Z,98888.78
2022-10-08T15:44:36.564Z,98892.53
2022-10-08T15:47:06.310Z,98893.50
2022-10-08T15:49:38.107Z,98894.59
2022-10-08T15:52:07.720Z,98902.66
2022-10-08T15:54:38.914Z,98908.00
2022-10-08T15:57:07.701Z,98917.78
2022-10-08T15:59:35.277Z,98920.53
2022-10-08T16:02:02.355Z,98924.88
2022-10-08T16:04:29.544Z,98917.06
2022-10-08T16:06:56.270Z,98927.56
2022-10-08T16:09:23.557Z,98929.31
2022-10-08T16:11:51.476Z,98925.91
2022-10-08T16:14:20.704Z,98933.22
2022-10-08T16:16:47.792Z,98915.97
2022-10-08T16:19:17.601Z,98924.38
2022-10-08T16:21:46.540Z,98929.81
2022-10-08T16:24:13.792Z,98946.56
2022-10-08T16:26:41.172Z,98944.97
2022-10-08T16:29:11.026Z,98943.31
2022-10-08T16:31:38.517Z,98943.25
2022-10-08T16:34:07.963Z,98950.53
2022-10-08T16:36:36.808Z,98949.88
2022-10-08T16:39:05.358Z,98955.22
2022-10-08T16:41:33.855Z,98972.00
2022-10-08T16:44:12.274Z,98972.00
2022-10-08T16:46:41.277Z,98978.41
2022-10-08T16:49:13.533Z,98987.22
2022-10-08T16:51:40.711Z,98982.00
2022-10-08T16:54:10.970Z,98991.75
2022-10-08T16:56:39.800Z,99000.56
2022-10-08T16:59:13.318Z,99002.38
2022-10-08T17:01:45.221Z,99018.28
2022-10-08T17:04:13.073Z,99013.16
2022-10-08T17:06:40.096Z,99014.91
2022-10-08T17:09:07.251Z,99021.16
2022-10-08T17:11:35.119Z,99023.72
2022-10-08T17:14:02.093Z,99026.44
2022-10-08T17:16:30.473Z,99033.31
2022-10-08T17:18:59.302Z,99040.47
2022-10-08T17:21:26.491Z,99044.75
2022-10-08T17:23:53.705Z,99044.81
2022-10-08T17:26:22.898Z,99043.28
2022-10-08T17:28:51.078Z,99046.00
2022-10-08T17:31:20.434Z,99054.91
2022-10-08T17:33:47.342Z,99059.38
2022-10-08T17:36:26.150Z,99064.66
2022-10-08T17:38:56.261Z,99069.91
2022-10-08T17:41:22.877Z,99071.72
2022-10-08T17:43:50.462Z,99077.00
2022-10-08T17:46:25.870Z,99080.59
2022-10-08T17:48:53.134Z,99070.97
2022-10-08T17:51:22.389Z,99091.25
2022-10-08T17:53:53.829Z,99089.53
2022-10-08T17:56:21.547Z,99098.31
2022-10-08T17:58:48.975Z,99093.13
2022-10-08T18:01:21.019Z,99101.94
2022-10-08T18:03:56.110Z,99103.78
2022-10-08T18:06:23.574Z,99098.53
2022-10-08T18:08:55.333Z,99121.31
2022-10-08T18:11:22.269Z,99123.94
2022-10-08T18:13:48.928Z,99113.53
2022-10-08T18:16:17.639Z,99121.41
2022-10-08T18:18:45.071Z,99122.31
2022-10-08T18:21:13.575Z,99132.81
2022-10-08T18:23:42.993Z,99134.66
2022-10-08T18:26:11.232Z,99143.50
2022-10-08T18:28:38.624Z,99147.03
2022-10-08T18:31:07.073Z,99147.09
2022-10-08T18:33:35.385Z,99146.34
2022-10-08T18:36:14.572Z,99158.66
2022-10-08T18:38:42.831Z,99161.44
2022-10-08T18:41:20.611Z,99164.19
2022-10-08T18:43:49.366Z,99168.72
2022-10-08T18:46:19.697Z,99178.44
2022-10-08T18:48:47.069Z,99179.28
2022-10-08T18:51:19.983Z,99178.34
2022-10-08T18:53:48.816Z,99187.16
2022-10-08T18:56:18.510Z,99182.72
2022-10-08T18:58:45.893Z,99187.97
2022-10-08T19:01:18.577Z,99190.56
2022-10-08T19:03:50.199Z,99180.06
2022-10-08T19:06:18.798Z,99182.72
2022-10-08T19:08:45.903Z,99185.41
2022-10-08T19:11:17.977Z,99192.41
2022-10-08T19:13:44.767Z,99187.25
2022-10-08T19:16:15.457Z,99189.91
2022-10-08T19:18:53.631Z,99195.19
2022-10-08T19:21:21.000Z,99190.00
2022-10-08T19:23:47.593Z,99203.09
2022-10-08T19:26:14.605Z,99197.94
2022-10-08T19:28:49.471Z,99210.16
2022-10-08T19:31:27.404Z,99211.94
2022-10-08T19:33:57.143Z,99213.66
2022-10-08T19:36:25.581Z,99216.34
2022-10-08T19:39:00.225Z,99218.97
2022-10-08T19:41:27.957Z,99215.47
2022-10-08T19:43:56.347Z,99222.47
2022-10-08T19:46:24.188Z,99216.34
2022-10-08T19:48:53.016Z,99226.91
2022-10-08T19:51:20.420Z,99237.38
2022-10-08T19:53:47.765Z,99242.66
2022-10-08T19:56:15.343Z,99237.44
2022-10-08T19:58:48.228Z,99238.31
2022-10-08T20:01:20.995Z,99234.81
2022-10-08T20:03:48.425Z,99250.53
2022-10-08T20:06:23.233Z,99254.94
2022-10-08T20:08:53.620Z,99259.38
2022-10-08T20:11:20.543Z,99274.22
2022-10-08T20:13:48.495Z,99271.63
2022-10-08T20:16:23.698Z,99266.38
2022-10-08T20:19:01.731Z,99268.13
2022-10-08T20:21:30.864Z,99271.66
2022-10-08T20:23:57.801Z,99269.00
2022-10-08T20:26:27.619Z,99275.13
2022-10-08T20:28:57.969Z,99280.41
2022-10-08T20:31:27.529Z,99286.50
2022-10-08T20:34:03.417Z,99278.63
2022-10-08T20:36:31.183Z,99283.00
2022-10-08T20:38:58.551Z,99287.38
2022-10-08T20:41:30.698Z,99287.41
2022-10-08T20:44:03.076Z,99287.41
2022-10-08T20:46:30.806Z,99299.63
2022-10-08T20:48:57.894Z,99294.41
2022-10-08T20:51:26.548Z,99295.28
2022-10-08T20:53:58.657Z,99301.41
2022-10-08T20:56:26.316Z,99305.75
2022-10-08T20:58:53.387Z,99311.00
2022-10-08T21:01:25.284Z,99310.97
2022-10-08T21:03:52.975Z,99310.09
2022-10-08T21:06:30.530Z,99311.00
2022-10-08T21:08:59.135Z,99318.03
2022-10-08T21:11:28.091Z,99324.16
2022-10-08T21:13:55.212Z,99325.91
2022-10-08T21:16:27.253Z,99332.00
2022-10-08T21:18:59.680Z,99332.91
2022-10-08T21:21:27.672Z,99330.28
2022-10-08T21:23:54.280Z,99333.75
2022-10-08T21:26:27.043Z,99330.28
2022-10-08T21:28:57.673Z,99329.41
2022-10-08T21:31:25.533Z,99338.16
2022-10-08T21:33:52.966Z,99335.56
2022-10-08T21:36:28.354Z,99329.41
2022-10-08T21:38:55.276Z,99332.00
2022-10-08T21:41:23.518Z,99326.78
2022-10-08T21:43:56.722Z,99325.94
2022-10-08T21:46:26.599Z,99333.75
2022-10-08T21:49:07.666Z,99339.00
2022-10-08T21:51:34.754Z,99333.78
2022-10-08T21:54:03.415Z,99339.91
2022-10-08T21:56:32.451Z,99346.88
2022-10-08T21:59:01.077Z,99332.91
2022-10-08T22:01:37.653Z,99332.91
2022-10-08T22:04:10.404Z,99343.38
2022-10-08T22:06:40.711Z,99346.88
2022-10-08T22:09:10.900Z,99344.25
2022-10-08T22:11:37.669Z,99352.09
2022-10-08T22:14:04.311Z,99347.75
2022-10-08T22:16:31.084Z,99351.22
2022-10-08T22:18:58.326Z,99354.72
2022-10-08T22:21:24.883Z,99352.09
2022-10-08T22:23:52.337Z,99352.09
2022-10-08T22:26:21.841Z,99355.59
2022-10-08T22:28:49.354Z,99360.84
2022-10-08T22:31:17.731Z,99360.81
2022-10-08T22:33:44.571Z,99355.56
2022-10-08T22:36:19.159Z,99360.81
2022-10-08T22:38:46.441Z,99357.31
2022-10-08T22:41:19.104Z,99356.44
2022-10-08T22:43:45.692Z,99357.31
2022-10-08T22:46:17.994Z,99353.84
2022-10-08T22:48:45.248Z,99355.59
2022-10-08T22:51:20.386Z,99357.31
2022-10-08T22:53:47.331Z,99356.47
2022-10-08T22:56:21.863Z,99358.22
2022-10-08T22:58:49.612Z,99357.31
2022-10-08T23:01:19.458Z,99359.97
2022-10-08T23:03:46.701Z,99355.56
2022-10-08T23:06:22.497Z,99364.31
2022-10-08T23:08:53.608Z,99362.53
2022-10-08T23:11:20.372Z,99361.69
2022-10-08T23:13:50.313Z,99362.53
2022-10-08T23:16:16.975Z,99356.44
2022-10-08T23:18:45.558Z,99363.41
2022-10-08T23:21:16.799Z,99354.69
2022-10-08T23:23:48.145Z,99359.91
2022-10-08T23:26:16.095Z,99359.94
2022-10-08T23:28:43.831Z,99362.56
2022-10-08T23:31:11.519Z,99366.91
2022-10-08T23:33:40.050Z,99366.06
2022-10-08T23:36:07.521Z,99373.91
2022-10-08T23:38:35.862Z,99376.53
2022-10-08T23:41:04.589Z,99373.91
2022-10-08T23:43:36.049Z,99372.13
2022-10-08T23:46:03.385Z,99373.88
2022-10-08T23:48:29.934Z,99370.34
2022-10-08T23:50:56.655Z,99378.22
2022-10-08T23:53:23.413Z,99375.56
2022-10-08T23:55:49.949Z,99380.78
2022-10-08T23:58:17.969Z,99384.25
